Time;durP1;ratioP1;P1;durP2;ratioP2;P2;SDS_P1;SDS_P2;PMS_P1;PMS_P2;Temp;Humidity;BMP_temperature;BMP_pressure;BME280_temperature;BME280_humidity;BME280_pressure;Samples;Min_cycle;Max_cycle;Signal;HPM_P1;HPM_P2
2022/08/29 00:01:29;;;;;;;9.25;3.63;;;;;;;12.60;79.25;98986.56;4236911;27;20301;-71
2022/08/29 00:03:29;;;;;;;7.43;3.35;;;;;;;12.60;78.83;98981.00;4237099;27;20046;-71
2022/08/29 00:05:32;;;;;;;6.07;2.92;;;;;;;12.59;78.53;98981.38;4236748;27;20047;-71
2022/08/29 00:07:33;;;;;;;9.55;3.45;;;;;;;12.56;78.27;98982.13;4237304;27;20054;-71
2022/08/29 00:09:33;;;;;;;5.35;3.30;;;;;;;12.53;77.94;98977.34;4235671;27;20043;-71
2022/08/29 00:11:33;;;;;;;5.25;2.95;;;;;;;12.45;78.61;98984.00;4236872;27;20518;-71
2022/08/29 00:13:34;;;;;;;6.72;3.17;;;;;;;12.34;79.73;98983.88;4236797;27;20374;-71
2022/08/29 00:15:36;;;;;;;7.25;2.97;;;;;;;12.28;80.35;98986.16;4236700;27;20036;-71
2022/08/29 00:17:36;;;;;;;8.82;3.53;;;;;;;12.21;80.82;98994.41;4236609;27;20119;-71
2022/08/29 00:19:36;;;;;;;6.82;3.33;;;;;;;12.15;80.86;98984.78;4235494;27;20035;-71
2022/08/29 00:21:37;;;;;;;5.30;3.30;;;;;;;12.13;80.55;98992.69;4237101;27;20129;-71
2022/08/29 00:23:37;;;;;;;4.97;3.00;;;;;;;12.18;79.21;98992.38;4236434;27;20035;-71
2022/08/29 00:25:38;;;;;;;6.38;3.05;;;;;;;12.20;79.21;98994.78;4236354;27;20051;-71
2022/08/29 00:27:38;;;;;;;5.82;3.20;;;;;;;12.17;79.23;98996.34;4237201;27;20449;-71
2022/08/29 00:29:38;;;;;;;4.85;2.55;;;;;;;12.13;79.38;99001.03;4235778;27;20047;-71
2022/08/29 00:31:39;;;;;;;4.97;3.00;;;;;;;12.10;79.84;98996.25;4236176;27;20043;-71
2022/08/29 00:33:39;;;;;;;6.65;3.10;;;;;;;12.02;80.14;99002.84;4236054;27;20051;-71
2022/08/29 00:35:41;;;;;;;4.28;2.80;;;;;;;11.98;79.79;98997.25;4236474;27;20043;-71
2022/08/29 00:37:42;;;;;;;4.25;3.08;;;;;;;12.00;79.17;98996.91;4237404;27;20103;-71
2022/08/29 00:39:43;;;;;;;6.13;3.03;;;;;;;12.05;79.18;99004.88;4235946;27;20042;-71
2022/08/29 00:41:43;;;;;;;5.95;3.28;;;;;;;11.99;80.08;98995.28;4237027;27;20050;-71
2022/08/29 00:43:43;;;;;;;4.10;2.65;;;;;;;11.92;79.76;99009.06;4236561;27;20031;-71
2022/08/29 00:46:27;;;;;;;4.35;2.80;;;;;;;11.81;80.05;98998.59;4236301;27;20073;-71
2022/08/29 00:48:28;;;;;;;;;;;;;;;11.76;80.52;99003.66;4235762;27;20047;-71
2022/08/29 00:50:33;;;;;;;6.32;4.00;;;;;;;11.72;80.57;99005.53;4236778;28;19998;-71
2022/08/29 00:52:38;;;;;;;5.43;3.25;;;;;;;11.76;79.46;99010.00;4236649;28;20045;-71
2022/08/29 00:54:42;;;;;;;7.88;4.10;;;;;;;11.80;79.37;99001.75;4236258;28;20282;-71
2022/08/29 00:56:44;;;;;;;11.60;3.75;;;;;;;11.79;79.84;99005.66;4236619;28;20050;-71
2022/08/29 00:58:52;;;;;;;4.97;2.87;;;;;;;11.66;80.58;99007.81;4235583;28;20496;-71
2022/08/29 01:00:53;;;;;;;7.18;3.60;;;;;;;11.58;82.40;99000.56;4234949;28;20276;-71
2022/08/29 01:02:54;;;;;;;4.78;3.42;;;;;;;11.52;82.66;98996.53;4236013;28;20054;-71
2022/08/29 01:04:54;;;;;;;6.18;3.58;;;;;;;11.46;82.49;99003.56;4236445;28;20039;-71
2022/08/29 01:06:55;;;;;;;7.55;3.95;;;;;;;11.37;82.88;99006.59;4236349;28;20063;-71
2022/08/29 01:08:55;;;;;;;5.95;3.70;;;;;;;11.31;83.08;99004.50;4235853;28;20035;-71
2022/08/29 01:13:15;;;;;;;7.80;3.50;;;;;;;11.19;83.64;99017.38;4236581;28;20081;-71
2022/08/29 01:15:16;;;;;;;5.97;3.60;;;;;;;11.13;83.98;99013.28;4236044;28;20035;-71
2022/08/29 01:17:44;;;;;;;7.05;3.53;;;;;;;11.04;85.33;99003.63;4235591;28;20058;-71
2022/08/29 01:19:50;;;;;;;7.78;3.70;;;;;;;11.02;84.94;99011.50;4235406;27;20051;-71
2022/08/29 01:22:12;;;;;;;5.57;3.60;;;;;;;11.00;84.93;99011.84;4239484;27;20039;-71
2022/08/29 01:24:31;;;;;;;7.72;3.65;;;;;;;10.98;85.18;99014.19;4238825;27;20050;-71
2022/08/29 01:26:32;;;;;;;7.55;4.00;;;;;;;10.92;85.44;99012.91;4239590;27;20043;-71
2022/08/29 01:28:40;;;;;;;6.35;3.80;;;;;;;10.87;85.85;99010.44;4239086;27;20043;-71
2022/08/29 01:31:05;;;;;;;8.02;4.05;;;;;;;10.84;86.58;99014.75;4240086;27;20126;-71
2022/08/29 01:33:05;;;;;;;5.97;3.55;;;;;;;10.76;86.98;99015.78;4239561;27;20043;-71
2022/08/29 01:35:07;;;;;;;5.65;3.75;;;;;;;10.66;87.79;98999.75;4239106;27;20051;-71
2022/08/29 01:37:12;;;;;;;8.73;4.07;;;;;;;10.62;88.50;99004.44;4238628;27;20614;-71
2022/08/29 01:39:13;;;;;;;7.47;3.80;;;;;;;10.58;88.25;98998.81;4238944;27;20306;-71
2022/08/29 01:41:13;;;;;;;6.45;4.20;;;;;;;10.58;87.69;99001.56;4239412;27;20039;-71
2022/08/29 01:43:14;;;;;;;8.52;4.60;;;;;;;10.56;88.63;99014.97;4238945;27;20051;-71
2022/08/29 01:45:14;;;;;;;7.90;4.20;;;;;;;10.51;88.66;99011.69;4238819;27;20229;-71
2022/08/29 01:47:15;;;;;;;7.75;3.67;;;;;;;10.55;88.63;99007.84;4239396;27;20136;-71
2022/08/29 01:49:17;;;;;;;7.38;3.97;;;;;;;10.48;88.73;99013.25;4238445;27;20045;-71
2022/08/29 01:51:18;;;;;;;5.75;3.03;;;;;;;10.41;88.40;99024.16;4239136;27;20035;-71
2022/08/29 01:53:19;;;;;;;6.20;3.00;;;;;;;10.38;87.85;99017.41;4238846;27;20173;-71
2022/08/29 01:55:19;;;;;;;8.13;3.50;;;;;;;10.31;87.93;99019.22;4239103;27;20086;-71
2022/08/29 01:57:20;;;;;;;6.20;3.22;;;;;;;10.25;88.83;99020.66;4239053;27;20040;-72
2022/08/29 01:59:25;;;;;;;4.95;3.20;;;;;;;10.21;88.97;99022.53;4238420;27;20035;-71
2022/08/29 02:01:38;;;;;;;6.22;3.33;;;;;;;10.01;89.79;99024.44;4238575;27;20047;-71
2022/08/29 02:03:38;;;;;;;6.95;3.03;;;;;;;9.91;89.54;99031.34;4238508;27;20047;-71
2022/08/29 02:05:38;;;;;;;5.57;3.58;;;;;;;9.87;89.32;99029.66;4238822;27;20239;-71
2022/08/29 02:07:39;;;;;;;3.97;3.00;;;;;;;9.81;88.54;99029.94;4220419;28;20092;-70
2022/08/29 02:09:39;;;;;;;5.72;3.08;;;;;;;9.77;88.65;99031.81;4238299;27;20074;-70
2022/08/29 02:11:40;;;;;;;9.30;3.33;;;;;;;9.73;89.33;99030.94;4238931;27;20043;-71
2022/08/29 02:13:56;;;;;;;9.57;3.47;;;;;;;9.72;89.41;99031.28;4238782;27;20043;-71
2022/08/29 02:15:56;;;;;;;7.07;2.95;;;;;;;9.65;89.25;99033.88;4237565;27;20043;-70
2022/08/29 02:17:56;;;;;;;6.13;4.22;;;;;;;9.53;89.50;99032.84;4239282;27;20070;-70
2022/08/29 02:19:57;;;;;;;8.38;3.35;;;;;;;9.52;88.68;99031.22;4237702;27;20043;-70
2022/08/29 02:21:58;;;;;;;5.15;3.83;;;;;;;9.49;87.95;99036.66;4238570;27;20126;-70
2022/08/29 02:24:01;;;;;;;7.72;3.38;;;;;;;9.45;88.57;99031.06;4238088;27;20134;-70
2022/08/29 02:26:03;;;;;;;4.95;3.22;;;;;;;9.40;88.70;99028.53;4238843;27;20043;-70
2022/08/29 02:28:04;;;;;;;5.63;3.05;;;;;;;9.34;88.67;99037.44;4239041;27;20027;-70
2022/08/29 02:30:05;;;;;;;7.50;3.42;;;;;;;9.27;88.99;99033.38;4219233;28;20032;-70
2022/08/29 02:32:10;;;;;;;5.60;3.17;;;;;;;9.23;88.99;99034.44;4237023;27;20087;-70
2022/08/29 02:34:11;;;;;;;5.90;3.70;;;;;;;9.18;89.48;99031.91;4238032;27;20282;-70
2022/08/29 02:36:12;;;;;;;3.67;2.97;;;;;;;9.16;88.65;99031.47;4238856;27;20362;-70
2022/08/29 02:38:14;;;;;;;5.57;3.38;;;;;;;9.11;88.75;99020.72;4237862;27;20071;-70
2022/08/29 02:40:14;;;;;;;6.45;3.00;;;;;;;9.06;89.25;99023.72;4237541;27;20084;-71
2022/08/29 02:42:14;;;;;;;5.28;3.28;;;;;;;8.95;90.17;99027.00;4238727;27;20031;-70
2022/08/29 02:44:15;;;;;;;6.68;3.08;;;;;;;8.88;90.13;99023.25;4237399;27;20061;-70
2022/08/29 02:46:17;;;;;;;5.93;3.38;;;;;;;8.81;90.21;99018.34;4238171;27;20102;-70
2022/08/29 02:48:18;;;;;;;4.70;3.00;;;;;;;8.82;88.95;99028.22;4237558;27;20055;-70
2022/08/29 02:50:18;;;;;;;8.05;3.80;;;;;;;8.79;89.45;99023.44;4238579;27;20038;-70
2022/08/29 02:52:19;;;;;;;6.97;3.47;;;;;;;8.83;87.68;99016.03;4238181;27;20031;-70
2022/08/29 02:54:19;;;;;;;5.45;3.10;;;;;;;8.82;87.60;99025.47;4237863;27;20027;-70
2022/08/29 02:56:20;;;;;;;6.78;3.15;;;;;;;8.79;87.30;99028.16;4238583;27;20651;-70
2022/08/29 02:58:21;;;;;;;4.60;3.53;;;;;;;8.65;88.91;99026.59;4236856;27;20555;-70
2022/08/29 03:00:24;;;;;;;5.95;3.17;;;;;;;8.63;89.81;99034.41;4237996;27;20194;-70
2022/08/29 03:02:25;;;;;;;7.88;3.45;;;;;;;8.65;89.03;99036.81;4238047;27;20031;-70
2022/08/29 03:04:26;;;;;;;5.30;3.13;;;;;;;8.60;88.59;99035.09;4237949;27;20047;-71
2022/08/29 03:06:26;;;;;;;4.70;3.05;;;;;;;8.64;87.97;99026.94;4237948;27;20027;-70
2022/08/29 03:08:26;;;;;;;8.35;3.45;;;;;;;8.60;88.48;99032.34;4236987;27;20035;-70
2022/08/29 03:10:27;;;;;;;10.02;3.28;;;;;;;8.56;89.07;99030.66;4238587;27;20454;-70
2022/08/29 03:12:28;;;;;;;5.38;3.22;;;;;;;8.54;88.81;99032.97;4238028;27;20027;-70
2022/08/29 03:14:28;;;;;;;6.10;3.10;;;;;;;8.55;88.42;99034.56;4237738;27;20513;-70
2022/08/29 03:16:28;;;;;;;4.53;2.88;;;;;;;8.51;88.69;99039.16;4237950;27;20043;-70
2022/08/29 03:18:29;;;;;;;5.03;3.22;;;;;;;8.47;88.96;99041.03;4236547;27;20046;-70
2022/08/29 03:20:33;;;;;;;5.05;3.22;;;;;;;8.48;89.89;99042.63;4237733;27;20035;-70
2022/08/29 03:22:33;;;;;;;4.82;3.15;;;;;;;8.42;90.53;99045.63;4237007;27;20066;-70
2022/08/29 03:24:35;;;;;;;5.63;3.40;;;;;;;8.42;90.49;99033.81;4237734;27;20679;-70
2022/08/29 03:26:36;;;;;;;6.97;2.92;;;;;;;8.40;89.43;99042.44;4238149;27;20039;-70
2022/08/29 03:28:36;;;;;;;6.72;3.28;;;;;;;8.35;90.48;99039.09;4236498;27;20042;-70
2022/08/29 03:30:36;;;;;;;5.32;3.33;;;;;;;8.31;90.70;99038.97;4237627;27;20046;-70
2022/08/29 03:32:38;;;;;;;6.38;3.70;;;;;;;8.27;91.27;99038.06;4237715;27;20591;-70
2022/08/29 03:34:38;;;;;;;6.57;4.45;;;;;;;8.22;91.86;99043.84;4237081;27;20047;-70
2022/08/29 03:36:39;;;;;;;6.20;3.20;;;;;;;8.17;92.07;99042.09;4238386;27;20158;-70
2022/08/29 03:38:42;;;;;;;6.07;3.72;;;;;;;8.23;90.49;99050.16;4236412;27;20267;-70
2022/08/29 03:40:42;;;;;;;5.65;3.53;;;;;;;8.25;90.98;99039.56;4237753;27;20051;-70
2022/08/29 03:42:42;;;;;;;6.05;3.65;;;;;;;8.31;89.29;99046.44;4236482;27;20135;-70
2022/08/29 03:44:43;;;;;;;5.53;3.47;;;;;;;8.27;89.57;99048.28;4217955;28;20080;-70
2022/08/29 03:46:43;;;;;;;7.05;3.42;;;;;;;8.24;89.04;99036.00;4237008;27;20103;-70
2022/08/29 03:48:44;;;;;;;6.45;3.63;;;;;;;8.18;90.25;99051.19;4236311;27;20058;-70
2022/08/29 03:50:44;;;;;;;5.53;3.28;;;;;;;8.08;91.18;99051.66;4237246;27;20139;-70
2022/08/29 03:52:44;;;;;;;5.93;3.53;;;;;;;8.03;92.23;99054.69;4237372;27;20039;-70
2022/08/29 03:54:45;;;;;;;8.25;3.45;;;;;;;8.08;90.57;99057.97;4237363;27;20030;-70
2022/08/29 03:56:45;;;;;;;7.32;3.35;;;;;;;8.07;90.77;99056.38;4236680;27;20236;-70
2022/08/29 03:58:47;;;;;;;6.72;3.53;;;;;;;8.09;90.55;99064.28;4236251;27;20074;-70
2022/08/29 04:00:47;;;;;;;3.78;2.83;;;;;;;8.09;90.34;99061.53;4236501;27;20050;-70
2022/08/29 04:02:48;;;;;;;6.90;3.50;;;;;;;8.08;90.12;99059.94;4236663;27;20031;-70
2022/08/29 04:05:07;;;;;;;4.65;3.28;;;;;;;8.04;89.68;99059.03;4237146;27;20047;-70
2022/08/29 04:07:08;;;;;;;4.88;2.80;;;;;;;7.97;90.08;99058.81;4236991;27;20188;-70
2022/08/29 04:09:09;;;;;;;4.55;3.08;;;;;;;7.97;90.36;99067.09;4236481;27;20047;-70
2022/08/29 04:11:10;;;;;;;8.05;3.75;;;;;;;7.92;90.74;99057.09;4234213;27;20039;-70
2022/08/29 04:13:11;;;;;;;6.95;3.45;;;;;;;7.89;90.90;99055.84;4236443;27;20039;-70
2022/08/29 04:15:12;;;;;;;6.68;3.55;;;;;;;7.96;90.54;99054.47;4236973;27;20051;-70
2022/08/29 04:17:13;;;;;;;4.65;3.42;;;;;;;8.02;90.51;99062.13;4236334;27;20047;-70
2022/08/29 04:19:13;;;;;;;7.65;3.63;;;;;;;8.15;90.46;99058.19;4236104;27;20066;-70
2022/08/29 04:21:14;;;;;;;6.35;2.97;;;;;;;8.23;90.05;99061.19;4236857;27;20257;-70
2022/08/29 04:23:15;;;;;;;6.32;3.22;;;;;;;8.24;89.43;99060.81;4236271;27;20101;-70
2022/08/29 04:25:15;;;;;;;5.55;3.75;;;;;;;8.24;90.04;99058.06;4236530;27;20035;-70
2022/08/29 04:27:16;;;;;;;11.05;3.97;;;;;;;8.16;91.42;99059.00;4235987;27;20087;-70
2022/08/29 04:29:16;;;;;;;8.82;3.47;;;;;;;8.08;92.88;99069.00;4236434;27;20072;-70
2022/08/29 04:31:18;;;;;;;5.60;3.58;;;;;;;8.07;92.91;99066.59;4236519;27;20073;-70
2022/08/29 04:33:22;;;;;;;7.03;4.50;;;;;;;8.05;91.36;99063.41;4234997;27;20295;-70
2022/08/29 04:35:22;;;;;;;7.30;3.60;;;;;;;8.05;92.14;99057.88;4235942;27;20470;-70
2022/08/29 04:37:23;;;;;;;6.47;3.63;;;;;;;8.11;91.64;99067.53;4236890;27;20063;-70
2022/08/29 04:39:23;;;;;;;6.82;3.63;;;;;;;8.10;91.88;99066.69;4236311;27;20133;-70
2022/08/29 04:41:24;;;;;;;11.65;3.40;;;;;;;8.14;91.41;99064.06;4236075;27;20352;-70
2022/08/29 04:43:24;;;;;;;5.40;3.55;;;;;;;8.23;90.15;99069.44;4236472;27;20055;-70
2022/08/29 04:45:25;;;;;;;5.30;3.78;;;;;;;8.20;90.25;99070.16;4235912;27;20523;-70
2022/08/29 04:47:26;;;;;;;6.68;3.35;;;;;;;8.16;90.72;99073.59;4236099;27;20386;-70
2022/08/29 04:49:26;;;;;;;8.93;3.40;;;;;;;8.12;91.17;99072.69;4235992;27;20246;-70
2022/08/29 04:51:27;;;;;;;8.00;3.50;;;;;;;8.12;91.53;99075.44;4236104;28;20134;-70
2022/08/29 04:53:28;;;;;;;7.00;3.67;;;;;;;8.14;90.96;99077.84;4218315;28;20049;-70
2022/08/29 04:55:29;;;;;;;8.13;3.75;;;;;;;8.20;91.80;99076.47;4142367;27;20389;-70
2022/08/29 04:57:30;;;;;;;5.03;3.70;;;;;;;8.30;91.76;99078.72;4224896;28;20064;-70
2022/08/29 04:59:30;;;;;;;4.65;3.13;;;;;;;8.42;90.91;99077.91;4235338;28;20121;-70
2022/08/29 05:01:31;;;;;;;6.63;3.28;;;;;;;8.52;90.67;99074.66;4235369;28;20054;-70
2022/08/29 05:03:32;;;;;;;6.68;3.78;;;;;;;8.59;89.62;99082.34;4218542;28;20549;-70
2022/08/29 05:05:33;;;;;;;6.90;3.70;;;;;;;8.70;89.47;99083.47;4236214;28;20043;-70
2022/08/29 05:07:33;;;;;;;8.07;3.40;;;;;;;8.81;89.58;99090.09;4232861;28;20058;-70
2022/08/29 05:09:33;;;;;;;6.88;3.03;;;;;;;8.86;89.00;99084.31;4234219;28;20083;-70
2022/08/29 05:11:34;;;;;;;7.55;3.40;;;;;;;8.90;89.69;99093.50;4236213;28;20484;-70
2022/08/29 05:13:34;;;;;;;4.97;3.40;;;;;;;8.96;89.65;99091.28;4235608;28;20040;-70
2022/08/29 05:15:37;;;;;;;6.15;3.25;;;;;;;9.04;89.64;99092.28;4235371;28;20045;-70
2022/08/29 05:17:38;;;;;;;5.30;3.33;;;;;;;9.10;89.27;99086.16;4236021;28;20455;-70
2022/08/29 05:19:42;;;;;;;7.97;3.30;;;;;;;9.15;88.78;99085.09;4234782;28;20410;-70
2022/08/29 05:21:43;;;;;;;8.05;3.38;;;;;;;9.18;88.32;99079.66;4235683;28;20035;-70
2022/08/29 05:23:43;;;;;;;8.73;3.72;;;;;;;9.25;89.76;99087.31;4235064;28;20043;-70
2022/08/29 05:25:44;;;;;;;10.25;5.50;;;;;;;9.22;91.85;99083.31;4233991;28;20158;-71
2022/08/29 05:27:45;;;;;;;5.35;3.50;;;;;;;9.22;91.65;99090.81;4235320;28;20040;-70
2022/08/29 05:29:48;;;;;;;7.72;4.22;;;;;;;9.21;92.42;99091.97;4234401;28;20290;-70
2022/08/29 05:31:48;;;;;;;;;;;;;;;9.25;92.95;99093.66;4235027;28;20189;-70
2022/08/29 05:33:49;;;;;;;6.90;3.55;;;;;;;9.27;92.89;99093.31;4236004;28;19959;-70
2022/08/29 05:35:49;;;;;;;8.55;3.90;;;;;;;9.32;92.71;99098.56;4234283;28;20107;-70
2022/08/29 05:37:50;;;;;;;5.60;3.65;;;;;;;9.36;92.13;99095.91;4235372;27;20067;-70
2022/08/29 05:39:51;;;;;;;6.00;3.97;;;;;;;9.42;91.42;99087.00;4234455;28;20556;-70
2022/08/29 05:41:55;;;;;;;9.07;3.90;;;;;;;9.49;90.95;99087.16;4235823;28;20471;-70
2022/08/29 05:43:56;;;;;;;11.57;4.25;;;;;;;9.52;91.28;99083.72;4235708;28;20122;-70
2022/08/29 05:46:05;;;;;;;13.05;4.40;;;;;;;9.62;91.73;99084.34;4235471;28;20669;-70
2022/08/29 05:48:08;;;;;;;7.43;4.55;;;;;;;9.70;91.75;99081.38;4233981;28;20054;-71
2022/08/29 05:50:10;;;;;;;;;;;;;;;9.81;90.57;99089.94;4233040;28;20059;-71
2022/08/29 05:52:12;;;;;;;8.38;4.38;;;;;;;9.84;91.03;99092.78;4235848;28;19956;-71
2022/08/29 05:54:12;;;;;;;6.32;3.60;;;;;;;9.93;90.24;99100.06;4235113;28;20023;-70
2022/08/29 05:56:20;;;;;;;8.10;3.78;;;;;;;10.01;89.16;99091.63;4235521;28;20034;-71
2022/08/29 05:58:21;;;;;;;7.30;4.30;;;;;;;10.08;88.60;99091.75;4234855;28;20035;-71
2022/08/29 06:00:21;;;;;;;7.15;3.65;;;;;;;10.18;87.26;99095.13;4234449;28;20043;-71
2022/08/29 06:02:21;;;;;;;6.20;3.50;;;;;;;10.28;86.72;99100.94;4234867;28;20524;-71
2022/08/29 06:04:22;;;;;;;8.10;4.35;;;;;;;10.34;87.27;99090.38;4234619;28;20046;-71
2022/08/29 06:06:24;;;;;;;8.80;4.38;;;;;;;10.45;86.42;99096.97;4235183;27;20047;-71
2022/08/29 06:08:25;;;;;;;5.18;3.40;;;;;;;10.51;86.03;99100.22;4236833;27;20166;-71
2022/08/29 06:10:25;;;;;;;10.05;3.95;;;;;;;10.60;85.72;99098.09;4238343;27;20075;-71
2022/08/29 06:12:26;;;;;;;8.05;3.90;;;;;;;10.67;85.81;99096.28;4220016;28;20044;-71
2022/08/29 06:14:26;;;;;;;10.00;4.07;;;;;;;10.75;86.61;99108.25;4238617;27;20053;-71
2022/08/29 06:16:28;;;;;;;10.35;3.97;;;;;;;10.81;86.38;99109.59;4238564;27;20050;-71
2022/08/29 06:18:28;;;;;;;9.20;4.30;;;;;;;10.90;85.84;99099.09;4237798;27;20039;-71
2022/08/29 06:20:29;;;;;;;9.10;3.83;;;;;;;10.97;85.29;99107.53;4237715;27;20348;-71
2022/08/29 06:22:29;;;;;;;8.27;4.07;;;;;;;11.03;85.89;99116.34;4236883;27;20035;-71
2022/08/29 06:24:30;;;;;;;12.52;3.85;;;;;;;11.08;86.98;99116.03;4237729;27;20471;-71
2022/08/29 06:26:31;;;;;;;9.20;4.30;;;;;;;11.15;87.80;99118.16;4237588;27;20035;-71
2022/08/29 06:28:33;;;;;;;15.07;5.43;;;;;;;11.20;88.98;99107.59;4236907;27;20447;-71
2022/08/29 06:30:34;;;;;;;11.10;3.92;;;;;;;11.30;88.07;99113.69;4237622;27;20043;-71
2022/08/29 06:32:34;;;;;;;10.43;4.05;;;;;;;11.37;86.04;99116.59;4238076;27;20043;-71
2022/08/29 06:34:34;;;;;;;12.07;4.22;;;;;;;11.44;85.49;99114.78;4236982;27;20047;-72
2022/08/29 06:36:36;;;;;;;7.10;4.30;;;;;;;11.52;84.87;99108.19;4237146;27;20164;-71
2022/08/29 06:38:37;;;;;;;8.60;3.83;;;;;;;11.63;85.29;99107.56;4237687;27;21159;-71
2022/08/29 06:40:37;;;;;;;8.02;4.10;;;;;;;11.71;85.00;99103.75;4237201;27;20039;-71
2022/08/29 06:42:37;;;;;;;12.35;4.35;;;;;;;11.80;86.02;99105.13;4237314;27;20043;-71
2022/08/29 06:44:38;;;;;;;10.18;4.45;;;;;;;11.89;86.10;99104.84;4236999;27;20051;-71
2022/08/29 06:46:42;;;;;;;15.02;5.32;;;;;;;11.96;87.10;99106.94;4237336;27;20050;-71
2022/08/29 06:48:43;;;;;;;8.13;4.53;;;;;;;12.04;86.93;99103.91;4236617;27;20045;-72
2022/08/29 06:50:44;;;;;;;6.05;4.22;;;;;;;12.09;86.59;99092.53;4236135;27;20382;-72
2022/08/29 06:52:44;;;;;;;8.38;3.97;;;;;;;12.15;85.98;99092.97;4237727;27;20104;-72
2022/08/29 06:54:44;;;;;;;7.30;3.92;;;;;;;12.27;83.91;99103.06;4237792;27;20031;-72
2022/08/29 06:56:45;;;;;;;7.57;3.78;;;;;;;12.38;83.90;99110.38;4237969;27;20483;-71
2022/08/29 06:58:46;;;;;;;12.75;3.95;;;;;;;12.52;83.32;99112.56;4237159;27;20036;-71
2022/08/29 07:00:48;;;;;;;8.52;3.65;;;;;;;12.64;83.07;99103.97;4218983;28;20463;-71
2022/08/29 07:02:50;;;;;;;7.85;3.80;;;;;;;12.78;82.11;99111.69;4236582;27;20046;-71
2022/08/29 07:04:50;;;;;;;6.93;3.50;;;;;;;12.87;80.99;99112.22;4237075;27;20038;-71
2022/08/29 07:06:50;;;;;;;7.05;4.13;;;;;;;12.93;80.60;99101.56;4236826;27;20043;-71
2022/08/29 07:08:51;;;;;;;6.47;3.47;;;;;;;13.05;80.56;99100.50;4236726;27;20460;-72
2022/08/29 07:10:51;;;;;;;8.77;3.47;;;;;;;13.20;80.66;99099.53;4237539;27;20506;-72
2022/08/29 07:12:52;;;;;;;8.25;4.10;;;;;;;13.29;79.47;99094.47;4237205;27;20039;-72
2022/08/29 07:14:53;;;;;;;8.77;3.92;;;;;;;13.39;78.49;99095.75;4237556;27;20036;-72
2022/08/29 07:16:55;;;;;;;8.18;3.95;;;;;;;13.49;78.85;99103.41;4237313;27;20126;-72
2022/08/29 07:18:55;;;;;;;7.07;3.40;;;;;;;13.52;77.76;99102.63;4236403;27;20340;-72
2022/08/29 07:20:56;;;;;;;10.02;3.75;;;;;;;13.59;78.26;99101.91;4236139;27;20050;-72
2022/08/29 07:22:56;;;;;;;7.82;3.45;;;;;;;13.72;77.46;99101.22;4236194;27;20114;-72
2022/08/29 07:24:56;;;;;;;6.93;3.85;;;;;;;13.82;76.13;99096.97;4236602;27;20421;-72
2022/08/29 07:26:57;;;;;;;6.78;3.20;;;;;;;13.91;75.75;99099.41;4236911;27;20058;-71
2022/08/29 07:29:00;;;;;;;7.05;2.90;;;;;;;13.97;75.97;99095.84;4236212;27;20093;-71
2022/08/29 07:31:01;;;;;;;6.78;3.58;;;;;;;14.06;76.31;99095.53;4236617;27;20039;-71
2022/08/29 07:33:01;;;;;;;5.63;3.25;;;;;;;14.14;74.47;99101.94;4237041;27;20089;-71
2022/08/29 07:35:01;;;;;;;9.05;3.90;;;;;;;14.24;74.44;99104.81;4237088;27;20043;-71
2022/08/29 07:37:03;;;;;;;8.55;3.30;;;;;;;14.34;72.97;99101.31;4237061;27;20116;-71
2022/08/29 07:39:08;;;;;;;6.93;3.43;;;;;;;14.43;74.04;99109.31;4236332;27;20072;-71
2022/08/29 07:41:13;;;;;;;6.13;3.42;;;;;;;14.47;72.93;99101.00;4235914;27;20303;-71
2022/08/29 07:43:13;;;;;;;4.47;3.58;;;;;;;14.55;72.95;99108.19;4236423;27;20518;-71
2022/08/29 07:45:14;;;;;;;5.57;3.13;;;;;;;14.61;72.28;99098.31;4236464;27;20044;-71
2022/08/29 07:47:14;;;;;;;7.75;3.13;;;;;;;14.72;71.84;99104.72;4236456;27;20031;-72
2022/08/29 07:49:14;;;;;;;8.15;3.15;;;;;;;14.83;70.11;99102.78;4235404;27;20046;-72
2022/08/29 07:51:18;;;;;;;7.85;3.08;;;;;;;14.90;68.33;99107.59;4236269;27;20474;-71
2022/08/29 07:53:19;;;;;;;5.43;2.90;;;;;;;14.92;68.36;99102.44;4237126;27;20127;-71
2022/08/29 07:55:20;;;;;;;10.98;2.88;;;;;;;14.97;69.34;99112.38;4235248;27;20055;-72
2022/08/29 07:57:21;;;;;;;7.50;3.13;;;;;;;15.02;68.47;99106.44;4236077;27;20071;-72
2022/08/29 07:59:21;;;;;;;8.20;3.03;;;;;;;15.14;68.06;99103.28;4235984;27;20536;-72
2022/08/29 08:01:23;;;;;;;6.03;3.05;;;;;;;15.19;67.62;99111.28;4236011;27;20057;-72
2022/08/29 08:03:25;;;;;;;6.40;3.03;;;;;;;15.27;67.14;99114.88;4235332;27;20062;-71
2022/08/29 08:05:26;;;;;;;5.93;2.95;;;;;;;15.29;66.15;99112.50;4235429;27;20064;-72
2022/08/29 08:07:28;;;;;;;6.45;2.97;;;;;;;15.35;66.51;99108.94;4218622;27;20048;-72
2022/08/29 08:09:28;;;;;;;5.85;2.65;;;;;;;15.45;66.32;99113.72;4235475;27;20051;-72
2022/08/29 08:11:29;;;;;;;8.95;2.95;;;;;;;15.54;67.35;99115.34;4236182;27;20043;-71
2022/08/29 08:13:31;;;;;;;4.65;2.47;;;;;;;15.64;66.28;99118.19;4236192;27;20050;-72
2022/08/29 08:15:31;;;;;;;6.75;3.42;;;;;;;15.78;66.41;99108.22;4236614;27;20051;-72
2022/08/29 08:17:32;;;;;;;6.10;3.28;;;;;;;15.87;64.90;99117.00;4236504;27;20437;-72
2022/08/29 08:19:32;;;;;;;6.22;2.97;;;;;;;15.90;64.88;99119.00;4235461;27;20476;-72
2022/08/29 08:21:33;;;;;;;6.20;3.08;;;;;;;15.91;64.93;99124.19;4235068;27;20073;-72
2022/08/29 08:23:33;;;;;;;9.27;3.45;;;;;;;15.93;63.22;99127.38;4235670;27;20043;-72
2022/08/29 08:25:34;;;;;;;5.47;3.08;;;;;;;15.93;64.20;99118.19;4235519;27;20101;-72
2022/08/29 08:27:34;;;;;;;5.20;2.58;;;;;;;16.00;63.62;99119.00;4235821;27;20039;-72
2022/08/29 08:29:34;;;;;;;4.80;2.42;;;;;;;16.10;62.74;99122.97;4235024;27;20463;-72
2022/08/29 08:31:35;;;;;;;5.10;3.28;;;;;;;16.12;62.81;99120.56;4217738;28;20317;-72
2022/08/29 08:33:39;;;;;;;9.65;2.97;;;;;;;16.18;62.93;99126.56;4235001;27;20043;-71
2022/08/29 08:35:39;;;;;;;7.45;3.00;;;;;;;16.29;61.66;99124.53;4235700;27;20473;-71
2022/08/29 08:37:40;;;;;;;7.20;3.03;;;;;;;16.37;61.34;99131.72;4237208;27;20065;-71
2022/08/29 08:39:40;;;;;;;9.18;2.58;;;;;;;16.43;61.22;99120.94;4235361;27;20047;-71
2022/08/29 08:41:54;;;;;;;4.93;2.55;;;;;;;16.46;61.53;99120.13;4234799;27;20035;-72
2022/08/29 08:43:59;;;;;;;7.55;2.92;;;;;;;16.46;61.14;99120.94;4234860;27;20146;-72
2022/08/29 08:45:59;;;;;;;6.10;3.05;;;;;;;16.58;61.72;99119.72;4235355;27;20107;-72
2022/08/29 08:48:20;;;;;;;9.98;2.78;;;;;;;16.63;61.44;99116.50;4234908;27;20047;-71
2022/08/29 08:50:29;;;;;;;8.98;2.60;;;;;;;16.75;59.92;99113.31;4234750;27;20049;-71
2022/08/29 08:52:46;;;;;;;6.05;2.67;;;;;;;16.84;59.24;99110.88;4235897;27;20039;-72
2022/08/29 08:55:00;;;;;;;4.35;2.53;;;;;;;16.77;59.63;99105.31;4235515;28;20038;-72
2022/08/29 08:57:11;;;;;;;9.77;2.88;;;;;;;16.77;59.56;99113.69;4235826;28;20479;-72
2022/08/29 08:59:30;;;;;;;11.60;6.63;;;;;;;16.95;58.99;99108.03;4233196;28;20505;-71
2022/08/29 09:01:32;;;;;;;7.05;3.58;;;;;;;17.00;58.55;99101.25;4234751;28;20728;-71
2022/08/29 09:04:03;;;;;;;7.60;3.20;;;;;;;17.06;58.93;99102.44;4235075;28;20046;-71
2022/08/29 09:06:37;;;;;;;9.88;2.85;;;;;;;17.11;58.18;99102.00;4234655;28;20047;-71
2022/08/29 09:08:51;;;;;;;;;;;;;;;17.13;57.29;99110.78;4200912;28;20088;-71
2022/08/29 09:10:54;;;;;;;5.10;2.75;;;;;;;17.28;57.92;99103.09;4235072;28;20407;-71
2022/08/29 09:13:20;;;;;;;7.75;2.60;;;;;;;17.42;57.58;99111.41;4235092;28;20051;-71
2022/08/29 09:15:23;;;;;;;8.48;2.90;;;;;;;17.53;56.49;99103.75;4217120;28;20640;-71
2022/08/29 09:17:31;;;;;;;4.30;2.45;;;;;;;17.64;56.14;99107.28;4235373;28;20043;-72
2022/08/29 09:19:32;;;;;;;7.03;2.92;;;;;;;17.70;56.25;99102.06;4235322;28;20354;-71
2022/08/29 09:21:41;;;;;;;6.07;2.90;;;;;;;17.76;55.34;99097.63;4234990;28;20747;-71
2022/08/29 09:23:52;;;;;;;6.07;2.58;;;;;;;17.73;56.22;99095.66;4234839;28;20518;-71
2022/08/29 09:25:53;;;;;;;11.35;3.28;;;;;;;17.73;57.00;99101.25;4235148;28;20051;-71
2022/08/29 09:27:53;;;;;;;7.72;2.78;;;;;;;17.75;55.97;99104.44;4235267;28;20127;-71
2022/08/29 09:30:04;;;;;;;7.20;3.00;;;;;;;17.73;56.05;99106.84;4235017;28;20047;-71
2022/08/29 09:32:10;;;;;;;5.60;2.50;;;;;;;17.85;55.91;99109.16;4234383;28;20118;-71
2022/08/29 09:34:31;;;;;;;9.88;3.00;;;;;;;17.94;55.11;99109.47;4235158;28;20049;-71
2022/08/29 09:36:36;;;;;;;5.20;2.88;;;;;;;18.15;53.93;99110.50;4235057;27;20054;-71
2022/08/29 09:38:37;;;;;;;4.90;2.53;;;;;;;18.17;54.18;99100.47;4234621;28;20462;-71
2022/08/29 09:40:57;;;;;;;6.20;2.53;;;;;;;18.13;54.60;99104.53;4235924;27;20369;-71
2022/08/29 09:43:01;;;;;;;6.90;2.95;;;;;;;18.15;54.93;99102.09;4238782;27;20043;-71